sensor_id;sensor_type;location;lat;lon;timestamp;temperature;humidity
15638;DHT22;26604;53.596;10.042;2023-07-16T00:01:00;18.70;99.90
15638;DHT22;26604;53.596;10.042;2023-07-16T00:03:27;18.70;99.90
15638;DHT22;26604;53.596;10.042;2023-07-16T00:05:54;18.60;99.90
15638;DHT22;26604;53.596;10.042;2023-07-16T00:08:21;18.70;99.90
15638;DHT22;26604;53.596;10.042;2023-07-16T00:10:49;18.70;99.90
15638;DHT22;26604;53.596;10.042;2023-07-16T00:13:16;18.60;99.90
15638;DHT22;26604;53.596;10.042;2023-07-16T00:15:43;18.60;99.90
15638;DHT22;26604;53.596;10.042;2023-07-16T00:18:10;18.60;99.90
15638;DHT22;26604;53.596;10.042;2023-07-16T00:20:37;18.60;99.90
15638;DHT22;26604;53.596;10.042;2023-07-16T00:23:04;18.60;99.90
15638;DHT22;26604;53.596;10.042;2023-07-16T00:25:30;18.50;99.90
15638;DHT22;26604;53.596;10.042;2023-07-16T00:27:59;18.50;99.90
15638;DHT22;26604;53.596;10.042;2023-07-16T00:30:25;18.40;99.90
15638;DHT22;26604;53.596;10.042;2023-07-16T00:32:52;18.40;99.90
15638;DHT22;26604;53.596;10.042;2023-07-16T00:35:19;18.40;99.90
15638;DHT22;26604;53.596;10.042;2023-07-16T00:37:46;18.30;99.90
15638;DHT22;26604;53.596;10.042;2023-07-16T00:40:13;18.30;99.90
15638;DHT22;26604;53.596;10.042;2023-07-16T00:42:40;18.30;99.90
15638;DHT22;26604;53.596;10.042;2023-07-16T00:45:12;18.30;99.90
15638;DHT22;26604;53.596;10.042;2023-07-16T00:47:40;18.30;99.90
15638;DHT22;26604;53.596;10.042;2023-07-16T00:50:09;18.40;99.90
15638;DHT22;26604;53.596;10.042;2023-07-16T00:52:37;18.40;99.90
15638;DHT22;26604;53.596;10.042;2023-07-16T00:55:04;18.40;99.90
15638;DHT22;26604;53.596;10.042;2023-07-16T00:57:33;18.40;99.90
15638;DHT22;26604;53.596;10.042;2023-07-16T01:00:00;18.40;99.90
15638;DHT22;26604;53.596;10.042;2023-07-16T01:02:28;18.40;99.90
15638;DHT22;26604;53.596;10.042;2023-07-16T01:04:55;18.40;99.90
15638;DHT22;26604;53.596;10.042;2023-07-16T01:07:24;18.40;99.90
15638;DHT22;26604;53.596;10.042;2023-07-16T01:09:53;18.40;99.90
15638;DHT22;26604;53.596;10.042;2023-07-16T01:12:22;18.40;99.90
15638;DHT22;26604;53.596;10.042;2023-07-16T01:14:50;18.40;99.90
15638;DHT22;26604;53.596;10.042;2023-07-16T01:17:18;18.40;99.90
15638;DHT22;26604;53.596;10.042;2023-07-16T01:19:46;18.40;99.90
15638;DHT22;26604;53.596;10.042;2023-07-16T01:22:33;18.40;99.90
15638;DHT22;26604;53.596;10.042;2023-07-16T01:25:36;18.40;99.90
15638;DHT22;26604;53.596;10.042;2023-07-16T01:28:26;18.40;99.90
15638;DHT22;26604;53.596;10.042;2023-07-16T01:30:55;18.40;99.90
15638;DHT22;26604;53.596;10.042;2023-07-16T01:33:24;18.40;99.90
15638;DHT22;26604;53.596;10.042;2023-07-16T01:35:52;18.30;99.90
15638;DHT22;26604;53.596;10.042;2023-07-16T01:38:19;18.30;99.90
15638;DHT22;26604;53.596;10.042;2023-07-16T01:40:48;18.30;99.90
15638;DHT22;26604;53.596;10.042;2023-07-16T01:43:15;18.30;99.90
15638;DHT22;26604;53.596;10.042;2023-07-16T01:45:42;18.30;99.90
15638;DHT22;26604;53.596;10.042;2023-07-16T01:48:22;18.30;99.90
15638;DHT22;26604;53.596;10.042;2023-07-16T01:50:51;18.30;99.90
15638;DHT22;26604;53.596;10.042;2023-07-16T01:53:17;18.30;99.90
15638;DHT22;26604;53.596;10.042;2023-07-16T01:55:44;18.30;99.90
15638;DHT22;26604;53.596;10.042;2023-07-16T01:58:11;18.30;99.90
15638;DHT22;26604;53.596;10.042;2023-07-16T02:00:38;18.30;99.90
15638;DHT22;26604;53.596;10.042;2023-07-16T02:03:05;18.30;99.90
15638;DHT22;26604;53.596;10.042;2023-07-16T02:05:33;18.30;99.90
15638;DHT22;26604;53.596;10.042;2023-07-16T02:08:00;18.30;99.90
15638;DHT22;26604;53.596;10.042;2023-07-16T02:10:27;18.30;99.90
15638;DHT22;26604;53.596;10.042;2023-07-16T02:12:54;18.20;99.90
15638;DHT22;26604;53.596;10.042;2023-07-16T02:15:21;18.20;99.90
15638;DHT22;26604;53.596;10.042;2023-07-16T02:17:48;18.20;99.90
15638;DHT22;26604;53.596;10.042;2023-07-16T02:20:14;18.20;99.90
15638;DHT22;26604;53.596;10.042;2023-07-16T02:22:43;18.20;99.90
15638;DHT22;26604;53.596;10.042;2023-07-16T02:25:09;18.10;99.90
15638;DHT22;26604;53.596;10.042;2023-07-16T02:27:36;18.10;99.90
15638;DHT22;26604;53.596;10.042;2023-07-16T02:30:04;18.10;99.90
15638;DHT22;26604;53.596;10.042;2023-07-16T02:32:32;18.00;99.90
15638;DHT22;26604;53.596;10.042;2023-07-16T02:34:59;18.00;99.90
15638;DHT22;26604;53.596;10.042;2023-07-16T02:37:26;17.80;99.90
15638;DHT22;26604;53.596;10.042;2023-07-16T02:39:54;17.80;99.90
15638;DHT22;26604;53.596;10.042;2023-07-16T02:42:21;17.80;99.90
15638;DHT22;26604;53.596;10.042;2023-07-16T02:44:49;17.80;99.90
15638;DHT22;26604;53.596;10.042;2023-07-16T02:47:16;17.80;99.90
15638;DHT22;26604;53.596;10.042;2023-07-16T02:49:43;17.80;99.90
15638;DHT22;26604;53.596;10.042;2023-07-16T02:52:10;17.70;99.90
15638;DHT22;26604;53.596;10.042;2023-07-16T02:54:36;17.80;99.90
15638;DHT22;26604;53.596;10.042;2023-07-16T02:57:05;17.70;99.90
15638;DHT22;26604;53.596;10.042;2023-07-16T02:59:32;17.80;99.90
15638;DHT22;26604;53.596;10.042;2023-07-16T03:01:59;17.80;99.90
15638;DHT22;26604;53.596;10.042;2023-07-16T03:04:26;17.80;99.90
15638;DHT22;26604;53.596;10.042;2023-07-16T03:06:53;17.90;99.90
15638;DHT22;26604;53.596;10.042;2023-07-16T03:09:19;17.90;99.90
15638;DHT22;26604;53.596;10.042;2023-07-16T03:11:46;17.90;99.90
15638;DHT22;26604;53.596;10.042;2023-07-16T03:14:15;17.90;99.90
15638;DHT22;26604;53.596;10.042;2023-07-16T03:16:42;17.90;99.90
15638;DHT22;26604;53.596;10.042;2023-07-16T03:19:09;17.80;99.90
15638;DHT22;26604;53.596;10.042;2023-07-16T03:21:35;17.80;99.90
15638;DHT22;26604;53.596;10.042;2023-07-16T03:24:02;17.80;99.90
15638;DHT22;26604;53.596;10.042;2023-07-16T03:26:29;17.80;99.90
15638;DHT22;26604;53.596;10.042;2023-07-16T03:28:56;17.80;99.90
15638;DHT22;26604;53.596;10.042;2023-07-16T03:31:24;17.90;99.90
15638;DHT22;26604;53.596;10.042;2023-07-16T03:33:51;17.90;99.90
15638;DHT22;26604;53.596;10.042;2023-07-16T03:36:18;17.90;99.90
15638;DHT22;26604;53.596;10.042;2023-07-16T03:38:45;17.90;99.90
15638;DHT22;26604;53.596;10.042;2023-07-16T03:41:12;18.00;99.90
15638;DHT22;26604;53.596;10.042;2023-07-16T03:43:39;18.00;99.90
15638;DHT22;26604;53.596;10.042;2023-07-16T03:46:06;18.00;99.90
15638;DHT22;26604;53.596;10.042;2023-07-16T03:48:35;18.00;99.90
15638;DHT22;26604;53.596;10.042;2023-07-16T03:51:02;18.00;99.90
15638;DHT22;26604;53.596;10.042;2023-07-16T03:53:29;18.00;99.90
15638;DHT22;26604;53.596;10.042;2023-07-16T03:55:55;18.00;99.90
15638;DHT22;26604;53.596;10.042;2023-07-16T03:58:22;18.00;99.90
15638;DHT22;26604;53.596;10.042;2023-07-16T04:00:49;18.00;99.90
15638;DHT22;26604;53.596;10.042;2023-07-16T04:03:16;18.00;99.90
15638;DHT22;26604;53.596;10.042;2023-07-16T04:05:44;17.90;99.90
15638;DHT22;26604;53.596;10.042;2023-07-16T04:08:11;17.90;99.90
15638;DHT22;26604;53.596;10.042;2023-07-16T04:10:38;18.00;99.90
15638;DHT22;26604;53.596;10.042;2023-07-16T04:13:05;18.10;99.90
15638;DHT22;26604;53.596;10.042;2023-07-16T04:15:32;18.10;99.90
15638;DHT22;26604;53.596;10.042;2023-07-16T04:17:59;18.20;99.90
15638;DHT22;26604;53.596;10.042;2023-07-16T04:20:26;18.30;99.90
15638;DHT22;26604;53.596;10.042;2023-07-16T04:22:54;18.30;99.90
15638;DHT22;26604;53.596;10.042;2023-07-16T04:25:21;18.30;99.90
15638;DHT22;26604;53.596;10.042;2023-07-16T04:27:47;18.40;99.90
15638;DHT22;26604;53.596;10.042;2023-07-16T04:30:14;18.40;99.90
15638;DHT22;26604;53.596;10.042;2023-07-16T04:32:41;18.50;99.90
15638;DHT22;26604;53.596;10.042;2023-07-16T04:35:08;18.60;99.90
15638;DHT22;26604;53.596;10.042;2023-07-16T04:37:35;18.70;99.90
15638;DHT22;26604;53.596;10.042;2023-07-16T04:40:04;18.80;99.90
15638;DHT22;26604;53.596;10.042;2023-07-16T04:42:31;18.80;99.90
15638;DHT22;26604;53.596;10.042;2023-07-16T04:44:58;19.00;99.90
15638;DHT22;26604;53.596;10.042;2023-07-16T04:47:25;19.20;99.90
15638;DHT22;26604;53.596;10.042;2023-07-16T04:49:52;19.30;99.90
15638;DHT22;26604;53.596;10.042;2023-07-16T04:52:19;19.40;99.90
15638;DHT22;26604;53.596;10.042;2023-07-16T04:54:45;19.50;99.90
15638;DHT22;26604;53.596;10.042;2023-07-16T04:57:14;19.70;99.90
15638;DHT22;26604;53.596;10.042;2023-07-16T04:59:40;19.90;99.90
15638;DHT22;26604;53.596;10.042;2023-07-16T05:02:07;20.10;99.90
15638;DHT22;26604;53.596;10.042;2023-07-16T05:04:34;20.10;99.90
15638;DHT22;26604;53.596;10.042;2023-07-16T05:07:02;20.20;99.90
15638;DHT22;26604;53.596;10.042;2023-07-16T05:09:29;20.20;99.90
15638;DHT22;26604;53.596;10.042;2023-07-16T05:11:56;20.20;99.90
15638;DHT22;26604;53.596;10.042;2023-07-16T05:14:27;20.30;99.90
15638;DHT22;26604;53.596;10.042;2023-07-16T05:16:54;20.30;99.90
15638;DHT22;26604;53.596;10.042;2023-07-16T05:19:21;20.40;99.90
15638;DHT22;26604;53.596;10.042;2023-07-16T05:21:48;20.60;99.90
15638;DHT22;26604;53.596;10.042;2023-07-16T05:24:14;20.90;99.90
15638;DHT22;26604;53.596;10.042;2023-07-16T05:26:41;21.20;99.90
15638;DHT22;26604;53.596;10.042;2023-07-16T05:29:08;21.50;99.90
15638;DHT22;26604;53.596;10.042;2023-07-16T05:31:36;21.40;99.90
15638;DHT22;26604;53.596;10.042;2023-07-16T05:34:03;21.30;99.90
15638;DHT22;26604;53.596;10.042;2023-07-16T05:36:30;21.10;99.90
15638;DHT22;26604;53.596;10.042;2023-07-16T05:38:57;21.00;99.90
15638;DHT22;26604;53.596;10.042;2023-07-16T05:41:24;20.80;99.90
15638;DHT22;26604;53.596;10.042;2023-07-16T05:43:51;20.70;99.90
15638;DHT22;26604;53.596;10.042;2023-07-16T05:46:17;20.70;99.90
15638;DHT22;26604;53.596;10.042;2023-07-16T05:48:45;20.60;99.90
15638;DHT22;26604;53.596;10.042;2023-07-16T05:51:12;20.60;99.90
15638;DHT22;26604;53.596;10.042;2023-07-16T05:53:39;20.50;99.90
15638;DHT22;26604;53.596;10.042;2023-07-16T05:56:06;20.50;99.90
15638;DHT22;26604;53.596;10.042;2023-07-16T05:58:33;20.60;99.90
15638;DHT22;26604;53.596;10.042;2023-07-16T06:01:00;20.60;99.90
15638;DHT22;26604;53.596;10.042;2023-07-16T06:03:26;20.70;99.90
15638;DHT22;26604;53.596;10.042;2023-07-16T06:05:55;20.80;99.90
15638;DHT22;26604;53.596;10.042;2023-07-16T06:08:22;20.80;99.90
15638;DHT22;26604;53.596;10.042;2023-07-16T06:10:50;20.80;99.90
15638;DHT22;26604;53.596;10.042;2023-07-16T06:13:17;20.90;99.90
15638;DHT22;26604;53.596;10.042;2023-07-16T06:15:45;20.90;99.90
15638;DHT22;26604;53.596;10.042;2023-07-16T06:18:13;20.90;99.90
15638;DHT22;26604;53.596;10.042;2023-07-16T06:20:43;20.90;99.90
15638;DHT22;26604;53.596;10.042;2023-07-16T06:23:12;20.90;99.90
15638;DHT22;26604;53.596;10.042;2023-07-16T06:25:39;20.80;99.90
15638;DHT22;26604;53.596;10.042;2023-07-16T06:28:09;20.80;99.90
15638;DHT22;26604;53.596;10.042;2023-07-16T06:30:37;20.90;99.90
15638;DHT22;26604;53.596;10.042;2023-07-16T06:33:04;20.90;99.90
15638;DHT22;26604;53.596;10.042;2023-07-16T06:35:31;20.90;99.90
15638;DHT22;26604;53.596;10.042;2023-07-16T06:37:58;21.00;99.90
15638;DHT22;26604;53.596;10.042;2023-07-16T06:40:28;21.00;99.90
15638;DHT22;26604;53.596;10.042;2023-07-16T06:42:54;21.10;99.90
15638;DHT22;26604;53.596;10.042;2023-07-16T06:45:21;21.10;99.90
15638;DHT22;26604;53.596;10.042;2023-07-16T06:47:48;21.20;99.90
15638;DHT22;26604;53.596;10.042;2023-07-16T06:50:15;21.20;99.90
15638;DHT22;26604;53.596;10.042;2023-07-16T06:52:42;21.30;99.90
15638;DHT22;26604;53.596;10.042;2023-07-16T06:55:12;21.30;99.90
15638;DHT22;26604;53.596;10.042;2023-07-16T06:57:40;21.30;99.90
15638;DHT22;26604;53.596;10.042;2023-07-16T07:00:08;21.40;99.90
15638;DHT22;26604;53.596;10.042;2023-07-16T07:02:37;21.40;99.90
15638;DHT22;26604;53.596;10.042;2023-07-16T07:05:04;21.50;99.90
15638;DHT22;26604;53.596;10.042;2023-07-16T07:07:31;21.50;99.90
15638;DHT22;26604;53.596;10.042;2023-07-16T07:10:01;21.70;99.90
15638;DHT22;26604;53.596;10.042;2023-07-16T07:12:28;21.90;99.90
15638;DHT22;26604;53.596;10.042;2023-07-16T07:14:56;22.00;99.90
15638;DHT22;26604;53.596;10.042;2023-07-16T07:17:23;22.20;99.90
15638;DHT22;26604;53.596;10.042;2023-07-16T07:19:50;22.50;99.90
15638;DHT22;26604;53.596;10.042;2023-07-16T07:22:17;22.40;99.90
15638;DHT22;26604;53.596;10.042;2023-07-16T07:24:44;22.50;99.90
15638;DHT22;26604;53.596;10.042;2023-07-16T07:27:11;22.60;99.90
15638;DHT22;26604;53.596;10.042;2023-07-16T07:29:39;22.50;99.90
15638;DHT22;26604;53.596;10.042;2023-07-16T07:32:13;22.60;99.90
15638;DHT22;26604;53.596;10.042;2023-07-16T07:34:39;22.60;99.90
15638;DHT22;26604;53.596;10.042;2023-07-16T07:37:06;22.60;99.90
15638;DHT22;26604;53.596;10.042;2023-07-16T07:39:34;22.70;99.90
15638;DHT22;26604;53.596;10.042;2023-07-16T07:42:01;22.70;99.90
15638;DHT22;26604;53.596;10.042;2023-07-16T07:44:28;22.90;99.90
15638;DHT22;26604;53.596;10.042;2023-07-16T07:46:55;23.00;99.60
15638;DHT22;26604;53.596;10.042;2023-07-16T07:49:23;23.00;97.70
15638;DHT22;26604;53.596;10.042;2023-07-16T07:51:50;23.00;98.90
15638;DHT22;26604;53.596;10.042;2023-07-16T07:54:16;23.00;99.90
15638;DHT22;26604;53.596;10.042;2023-07-16T07:56:45;23.20;99.90
15638;DHT22;26604;53.596;10.042;2023-07-16T07:59:12;23.20;98.50
15638;DHT22;26604;53.596;10.042;2023-07-16T08:01:39;23.20;99.90
15638;DHT22;26604;53.596;10.042;2023-07-16T08:04:06;23.10;96.40
15638;DHT22;26604;53.596;10.042;2023-07-16T08:06:34;23.00;97.90
15638;DHT22;26604;53.596;10.042;2023-07-16T08:09:01;22.80;99.90
15638;DHT22;26604;53.596;10.042;2023-07-16T08:11:28;22.90;99.90
15638;DHT22;26604;53.596;10.042;2023-07-16T08:13:55;23.10;99.90
15638;DHT22;26604;53.596;10.042;2023-07-16T08:16:23;23.20;98.00
15638;DHT22;26604;53.596;10.042;2023-07-16T08:18:50;23.30;90.00
15638;DHT22;26604;53.596;10.042;2023-07-16T08:21:17;23.50;90.00
15638;DHT22;26604;53.596;10.042;2023-07-16T08:23:47;23.80;89.00
15638;DHT22;26604;53.596;10.042;2023-07-16T08:26:13;24.00;86.10
15638;DHT22;26604;53.596;10.042;2023-07-16T08:28:40;24.10;75.20
15638;DHT22;26604;53.596;10.042;2023-07-16T08:31:07;24.20;76.10
15638;DHT22;26604;53.596;10.042;2023-07-16T08:33:34;24.20;63.10
15638;DHT22;26604;53.596;10.042;2023-07-16T08:36:02;24.30;62.20
15638;DHT22;26604;53.596;10.042;2023-07-16T08:38:29;24.50;62.80
15638;DHT22;26604;53.596;10.042;2023-07-16T08:40:57;24.80;60.70
15638;DHT22;26604;53.596;10.042;2023-07-16T08:43:24;25.00;54.00
15638;DHT22;26604;53.596;10.042;2023-07-16T08:45:51;25.30;49.80
15638;DHT22;26604;53.596;10.042;2023-07-16T08:48:18;25.40;47.30
15638;DHT22;26604;53.596;10.042;2023-07-16T08:50:48;25.40;47.70
15638;DHT22;26604;53.596;10.042;2023-07-16T08:53:16;25.60;49.60
15638;DHT22;26604;53.596;10.042;2023-07-16T08:55:44;25.80;46.40
15638;DHT22;26604;53.596;10.042;2023-07-16T08:58:14;25.90;46.20
15638;DHT22;26604;53.596;10.042;2023-07-16T09:00:42;25.80;43.90
15638;DHT22;26604;53.596;10.042;2023-07-16T09:03:12;25.90;43.80
15638;DHT22;26604;53.596;10.042;2023-07-16T09:05:39;26.00;41.80
15638;DHT22;26604;53.596;10.042;2023-07-16T09:08:07;26.00;36.80
15638;DHT22;26604;53.596;10.042;2023-07-16T09:10:34;26.00;32.10
15638;DHT22;26604;53.596;10.042;2023-07-16T09:13:01;26.00;31.60
15638;DHT22;26604;53.596;10.042;2023-07-16T09:15:30;25.90;33.70
15638;DHT22;26604;53.596;10.042;2023-07-16T09:17:57;25.80;31.60
15638;DHT22;26604;53.596;10.042;2023-07-16T09:20:23;25.60;34.30
15638;DHT22;26604;53.596;10.042;2023-07-16T09:22:53;25.10;37.00
15638;DHT22;26604;53.596;10.042;2023-07-16T09:25:25;24.70;38.30
15638;DHT22;26604;53.596;10.042;2023-07-16T09:27:52;24.50;44.70
15638;DHT22;26604;53.596;10.042;2023-07-16T09:30:20;24.40;44.80
15638;DHT22;26604;53.596;10.042;2023-07-16T09:32:48;24.50;42.90
15638;DHT22;26604;53.596;10.042;2023-07-16T09:35:16;24.60;40.10
15638;DHT22;26604;53.596;10.042;2023-07-16T09:37:44;24.50;41.90
15638;DHT22;26604;53.596;10.042;2023-07-16T09:40:11;24.40;41.40
15638;DHT22;26604;53.596;10.042;2023-07-16T09:42:39;24.30;41.70
15638;DHT22;26604;53.596;10.042;2023-07-16T09:45:08;24.30;44.00
15638;DHT22;26604;53.596;10.042;2023-07-16T09:47:35;24.40;43.10
15638;DHT22;26604;53.596;10.042;2023-07-16T09:50:04;24.70;41.60
15638;DHT22;26604;53.596;10.042;2023-07-16T09:52:32;24.90;40.70
15638;DHT22;26604;53.596;10.042;2023-07-16T09:55:01;25.00;40.20
15638;DHT22;26604;53.596;10.042;2023-07-16T09:57:30;25.00;36.00
15638;DHT22;26604;53.596;10.042;2023-07-16T10:00:01;25.00;34.60
15638;DHT22;26604;53.596;10.042;2023-07-16T10:02:32;25.10;35.50
15638;DHT22;26604;53.596;10.042;2023-07-16T10:04:59;25.00;34.70
15638;DHT22;26604;53.596;10.042;2023-07-16T10:07:27;24.80;33.80
15638;DHT22;26604;53.596;10.042;2023-07-16T10:09:55;25.00;31.60
15638;DHT22;26604;53.596;10.042;2023-07-16T10:12:23;24.90;30.00
15638;DHT22;26604;53.596;10.042;2023-07-16T10:14:51;24.90;31.10
15638;DHT22;26604;53.596;10.042;2023-07-16T10:17:19;24.80;30.80
15638;DHT22;26604;53.596;10.042;2023-07-16T10:19:51;24.80;32.60
15638;DHT22;26604;53.596;10.042;2023-07-16T10:22:32;25.00;33.60
15638;DHT22;26604;53.596;10.042;2023-07-16T10:25:01;25.00;31.10
15638;DHT22;26604;53.596;10.042;2023-07-16T10:27:30;25.00;31.00
15638;DHT22;26604;53.596;10.042;2023-07-16T10:29:57;24.80;29.30
15638;DHT22;26604;53.596;10.042;2023-07-16T10:32:27;24.60;31.60
15638;DHT22;26604;53.596;10.042;2023-07-16T10:34:54;24.50;33.30
15638;DHT22;26604;53.596;10.042;2023-07-16T10:37:22;24.60;35.50
15638;DHT22;26604;53.596;10.042;2023-07-16T10:39:51;24.80;33.70
15638;DHT22;26604;53.596;10.042;2023-07-16T10:42:20;24.80;31.80
15638;DHT22;26604;53.596;10.042;2023-07-16T10:44:49;24.80;30.80
15638;DHT22;26604;53.596;10.042;2023-07-16T10:47:22;24.80;34.00
15638;DHT22;26604;53.596;10.042;2023-07-16T10:49:50;25.10;35.40
15638;DHT22;26604;53.596;10.042;2023-07-16T10:52:20;25.30;28.80
15638;DHT22;26604;53.596;10.042;2023-07-16T10:54:47;25.40;31.30
15638;DHT22;26604;53.596;10.042;2023-07-16T10:57:16;25.50;29.60
15638;DHT22;26604;53.596;10.042;2023-07-16T10:59:45;25.60;27.50
15638;DHT22;26604;53.596;10.042;2023-07-16T11:02:14;25.60;26.70
15638;DHT22;26604;53.596;10.042;2023-07-16T11:04:41;25.60;29.10
15638;DHT22;26604;53.596;10.042;2023-07-16T11:07:10;25.80;28.80
15638;DHT22;26604;53.596;10.042;2023-07-16T11:09:41;25.90;27.00
15638;DHT22;26604;53.596;10.042;2023-07-16T11:12:10;25.90;23.90
15638;DHT22;26604;53.596;10.042;2023-07-16T11:14:39;26.00;23.40
15638;DHT22;26604;53.596;10.042;2023-07-16T11:17:06;26.20;21.60
15638;DHT22;26604;53.596;10.042;2023-07-16T11:19:35;26.20;24.20
15638;DHT22;26604;53.596;10.042;2023-07-16T11:22:03;26.30;23.10
15638;DHT22;26604;53.596;10.042;2023-07-16T11:24:36;26.30;21.00
15638;DHT22;26604;53.596;10.042;2023-07-16T11:27:05;26.30;21.30
15638;DHT22;26604;53.596;10.042;2023-07-16T11:29:35;26.40;22.00
15638;DHT22;26604;53.596;10.042;2023-07-16T11:32:05;26.30;20.50
15638;DHT22;26604;53.596;10.042;2023-07-16T11:34:32;26.30;21.40
15638;DHT22;26604;53.596;10.042;2023-07-16T11:37:10;26.40;22.10
15638;DHT22;26604;53.596;10.042;2023-07-16T11:39:37;26.60;20.10
15638;DHT22;26604;53.596;10.042;2023-07-16T11:42:05;26.50;18.40
15638;DHT22;26604;53.596;10.042;2023-07-16T11:44:33;26.40;19.20
15638;DHT22;26604;53.596;10.042;2023-07-16T11:47:01;26.40;21.50
15638;DHT22;26604;53.596;10.042;2023-07-16T11:49:29;26.40;19.50
15638;DHT22;26604;53.596;10.042;2023-07-16T11:51:57;26.30;18.30
15638;DHT22;26604;53.596;10.042;2023-07-16T11:54:24;26.40;21.60
15638;DHT22;26604;53.596;10.042;2023-07-16T11:56:52;26.80;21.70
15638;DHT22;26604;53.596;10.042;2023-07-16T11:59:18;26.90;19.10
15638;DHT22;26604;53.596;10.042;2023-07-16T12:01:47;26.90;16.50
15638;DHT22;26604;53.596;10.042;2023-07-16T12:04:15;26.70;18.30
15638;DHT22;26604;53.596;10.042;2023-07-16T12:06:43;26.60;16.20
15638;DHT22;26604;53.596;10.042;2023-07-16T12:09:10;26.40;16.90
15638;DHT22;26604;53.596;10.042;2023-07-16T12:11:37;26.30;18.80
15638;DHT22;26604;53.596;10.042;2023-07-16T12:14:05;26.30;19.70
15638;DHT22;26604;53.596;10.042;2023-07-16T12:16:32;26.20;19.80
15638;DHT22;26604;53.596;10.042;2023-07-16T12:18:59;26.20;18.30
15638;DHT22;26604;53.596;10.042;2023-07-16T12:21:25;26.10;18.30
15638;DHT22;26604;53.596;10.042;2023-07-16T12:23:54;25.90;20.10
15638;DHT22;26604;53.596;10.042;2023-07-16T12:26:21;25.80;17.20
15638;DHT22;26604;53.596;10.042;2023-07-16T12:28:47;26.00;18.20
15638;DHT22;26604;53.596;10.042;2023-07-16T12:31:15;26.30;19.00
15638;DHT22;26604;53.596;10.042;2023-07-16T12:33:42;26.40;17.10
15638;DHT22;26604;53.596;10.042;2023-07-16T12:36:09;26.40;15.80
15638;DHT22;26604;53.596;10.042;2023-07-16T12:38:36;26.40;16.40
15638;DHT22;26604;53.596;10.042;2023-07-16T12:41:04;26.40;16.60
15638;DHT22;26604;53.596;10.042;2023-07-16T12:43:31;26.30;17.10
15638;DHT22;26604;53.596;10.042;2023-07-16T12:46:00;26.20;18.40
15638;DHT22;26604;53.596;10.042;2023-07-16T12:48:28;26.10;19.00
15638;DHT22;26604;53.596;10.042;2023-07-16T12:50:55;26.00;20.00
15638;DHT22;26604;53.596;10.042;2023-07-16T12:53:22;26.10;21.00
15638;DHT22;26604;53.596;10.042;2023-07-16T12:55:48;26.20;19.90
15638;DHT22;26604;53.596;10.042;2023-07-16T12:58:17;26.10;18.10
15638;DHT22;26604;53.596;10.042;2023-07-16T13:00:43;26.00;18.90
15638;DHT22;26604;53.596;10.042;2023-07-16T13:03:10;26.00;20.20
15638;DHT22;26604;53.596;10.042;2023-07-16T13:05:39;26.10;20.00
15638;DHT22;26604;53.596;10.042;2023-07-16T13:08:06;26.30;19.40
15638;DHT22;26604;53.596;10.042;2023-07-16T13:10:33;26.50;18.80
15638;DHT22;26604;53.596;10.042;2023-07-16T13:13:00;26.60;18.30
15638;DHT22;26604;53.596;10.042;2023-07-16T13:15:30;26.60;19.00
15638;DHT22;26604;53.596;10.042;2023-07-16T13:17:57;26.50;20.50
15638;DHT22;26604;53.596;10.042;2023-07-16T13:20:24;26.50;17.80
15638;DHT22;26604;53.596;10.042;2023-07-16T13:22:50;26.70;16.50
15638;DHT22;26604;53.596;10.042;2023-07-16T13:25:17;26.70;17.40
15638;DHT22;26604;53.596;10.042;2023-07-16T13:27:44;26.40;16.90
15638;DHT22;26604;53.596;10.042;2023-07-16T13:30:11;26.40;19.00
15638;DHT22;26604;53.596;10.042;2023-07-16T13:32:40;26.50;18.20
15638;DHT22;26604;53.596;10.042;2023-07-16T13:35:07;26.60;17.30
15638;DHT22;26604;53.596;10.042;2023-07-16T13:37:34;26.50;17.60
15638;DHT22;26604;53.596;10.042;2023-07-16T13:40:01;26.40;18.20
15638;DHT22;26604;53.596;10.042;2023-07-16T13:42:28;26.20;18.10
15638;DHT22;26604;53.596;10.042;2023-07-16T13:44:55;26.00;19.40
15638;DHT22;26604;53.596;10.042;2023-07-16T13:47:22;26.00;20.10
15638;DHT22;26604;53.596;10.042;2023-07-16T13:49:50;26.20;19.70
15638;DHT22;26604;53.596;10.042;2023-07-16T13:52:17;26.30;19.40
15638;DHT22;26604;53.596;10.042;2023-07-16T13:54:44;26.50;19.20
15638;DHT22;26604;53.596;10.042;2023-07-16T13:57:11;26.60;17.60
15638;DHT22;26604;53.596;10.042;2023-07-16T13:59:38;26.50;18.40
15638;DHT22;26604;53.596;10.042;2023-07-16T14:02:04;26.50;18.70
15638;DHT22;26604;53.596;10.042;2023-07-16T14:04:31;26.50;19.20
15638;DHT22;26604;53.596;10.042;2023-07-16T14:07:00;26.50;19.70
15638;DHT22;26604;53.596;10.042;2023-07-16T14:09:27;26.40;20.20
15638;DHT22;26604;53.596;10.042;2023-07-16T14:11:54;26.40;21.50
15638;DHT22;26604;53.596;10.042;2023-07-16T14:14:22;26.30;21.00
15638;DHT22;26604;53.596;10.042;2023-07-16T14:16:49;26.30;21.10
15638;DHT22;26604;53.596;10.042;2023-07-16T14:19:15;26.30;21.20
15638;DHT22;26604;53.596;10.042;2023-07-16T14:21:42;26.40;20.80
15638;DHT22;26604;53.596;10.042;2023-07-16T14:24:11;26.50;19.60
15638;DHT22;26604;53.596;10.042;2023-07-16T14:26:37;26.60;19.70
15638;DHT22;26604;53.596;10.042;2023-07-16T14:29:04;26.60;19.30
15638;DHT22;26604;53.596;10.042;2023-07-16T14:31:31;26.60;20.10
15638;DHT22;26604;53.596;10.042;2023-07-16T14:33:58;26.60;20.10
15638;DHT22;26604;53.596;10.042;2023-07-16T14:36:25;26.70;18.20
15638;DHT22;26604;53.596;10.042;2023-07-16T14:38:53;26.70;17.50
15638;DHT22;26604;53.596;10.042;2023-07-16T14:41:21;26.70;18.30
15638;DHT22;26604;53.596;10.042;2023-07-16T14:43:48;26.70;18.50
15638;DHT22;26604;53.596;10.042;2023-07-16T14:46:15;26.80;19.30
15638;DHT22;26604;53.596;10.042;2023-07-16T14:48:42;26.90;17.90
15638;DHT22;26604;53.596;10.042;2023-07-16T14:51:09;27.00;19.30
15638;DHT22;26604;53.596;10.042;2023-07-16T14:53:36;26.90;17.80
15638;DHT22;26604;53.596;10.042;2023-07-16T14:56:03;26.80;20.10
15638;DHT22;26604;53.596;10.042;2023-07-16T14:58:33;26.90;19.40
15638;DHT22;26604;53.596;10.042;2023-07-16T15:01:00;27.00;18.60
15638;DHT22;26604;53.596;10.042;2023-07-16T15:03:29;27.00;16.70
15638;DHT22;26604;53.596;10.042;2023-07-16T15:05:57;26.80;17.70
15638;DHT22;26604;53.596;10.042;2023-07-16T15:08:24;26.50;18.30
15638;DHT22;26604;53.596;10.042;2023-07-16T15:10:52;26.60;19.40
15638;DHT22;26604;53.596;10.042;2023-07-16T15:13:21;26.70;18.40
15638;DHT22;26604;53.596;10.042;2023-07-16T15:15:49;26.70;19.60
15638;DHT22;26604;53.596;10.042;2023-07-16T15:18:16;26.60;20.40